sensor_id;sensor_type;location;lat;lon;timestamp;pressure;altitude;pressure_sealevel;temperature;humidity
14089;BME280;7120;52.890;6.040;2023-02-08T00:00:43;103944.41;;;-1.40;84.78
14089;BME280;7120;52.890;6.040;2023-02-08T00:03:09;103940.03;;;-1.41;84.67
14089;BME280;7120;52.890;6.040;2023-02-08T00:05:34;103946.47;;;-1.24;84.56
14089;BME280;7120;52.890;6.040;2023-02-08T00:07:59;103939.72;;;-1.38;84.65
14089;BME280;7120;52.890;6.040;2023-02-08T00:10:25;103940.16;;;-1.42;85.47
14089;BME280;7120;52.890;6.040;2023-02-08T00:12:50;103946.81;;;-1.46;85.51
14089;BME280;7120;52.890;6.040;2023-02-08T00:15:19;103923.41;;;-1.63;85.38
14089;BME280;7120;52.890;6.040;2023-02-08T00:17:44;103932.56;;;-1.56;85.77
14089;BME280;7120;52.890;6.040;2023-02-08T00:20:10;103934.13;;;-1.54;85.23
14089;BME280;7120;52.890;6.040;2023-02-08T00:22:36;103933.84;;;-1.60;84.99
14089;BME280;7120;52.890;6.040;2023-02-08T00:25:03;103918.03;;;-1.54;84.71
14089;BME280;7120;52.890;6.040;2023-02-08T00:27:29;103928.19;;;-1.57;84.54
14089;BME280;7120;52.890;6.040;2023-02-08T00:29:54;103919.56;;;-1.51;84.44
14089;BME280;7120;52.890;6.040;2023-02-08T00:32:19;103926.19;;;-1.46;84.58
14089;BME280;7120;52.890;6.040;2023-02-08T00:34:45;103916.44;;;-1.47;84.23
14089;BME280;7120;52.890;6.040;2023-02-08T00:37:10;103903.31;;;-1.50;83.89
14089;BME280;7120;52.890;6.040;2023-02-08T00:39:35;103912.34;;;-1.51;84.61
14089;BME280;7120;52.890;6.040;2023-02-08T00:42:01;103921.56;;;-1.53;84.71
14089;BME280;7120;52.890;6.040;2023-02-08T00:44:26;103915.78;;;-1.58;84.62
14089;BME280;7120;52.890;6.040;2023-02-08T00:46:51;103923.84;;;-1.68;84.90
14089;BME280;7120;52.890;6.040;2023-02-08T00:49:18;103920.06;;;-1.75;84.72
14089;BME280;7120;52.890;6.040;2023-02-08T00:51:43;103904.53;;;-1.81;85.48
14089;BME280;7120;52.890;6.040;2023-02-08T00:54:13;103920.91;;;-1.84;85.25
14089;BME280;7120;52.890;6.040;2023-02-08T00:56:39;103929.25;;;-1.87;85.69
14089;BME280;7120;52.890;6.040;2023-02-08T00:59:04;103917.94;;;-1.91;85.46
14089;BME280;7120;52.890;6.040;2023-02-08T01:01:30;103928.53;;;-1.80;85.33
14089;BME280;7120;52.890;6.040;2023-02-08T01:03:55;103929.94;;;-1.85;85.20
14089;BME280;7120;52.890;6.040;2023-02-08T01:06:21;103927.09;;;-1.74;84.20
14089;BME280;7120;52.890;6.040;2023-02-08T01:08:47;103940.78;;;-1.68;84.61
14089;BME280;7120;52.890;6.040;2023-02-08T01:11:15;103944.47;;;-1.78;84.70
14089;BME280;7120;52.890;6.040;2023-02-08T01:13:43;103935.03;;;-1.82;84.98
14089;BME280;7120;52.890;6.040;2023-02-08T01:16:15;103931.50;;;-1.92;85.30
14089;BME280;7120;52.890;6.040;2023-02-08T01:18:42;103939.28;;;-1.89;85.31
14089;BME280;7120;52.890;6.040;2023-02-08T01:21:14;103932.50;;;-1.94;86.08
14089;BME280;7120;52.890;6.040;2023-02-08T01:23:40;103927.53;;;-1.98;85.95
14089;BME280;7120;52.890;6.040;2023-02-08T01:26:07;103947.44;;;-1.81;85.40
14089;BME280;7120;52.890;6.040;2023-02-08T01:28:33;103940.97;;;-1.88;86.11
14089;BME280;7120;52.890;6.040;2023-02-08T01:30:59;103924.72;;;-1.87;85.47
14089;BME280;7120;52.890;6.040;2023-02-08T01:33:24;103931.91;;;-1.78;84.75
14089;BME280;7120;52.890;6.040;2023-02-08T01:35:51;103928.09;;;-1.75;84.57
14089;BME280;7120;52.890;6.040;2023-02-08T01:38:17;103915.81;;;-1.78;84.74
14089;BME280;7120;52.890;6.040;2023-02-08T01:40:42;103901.44;;;-1.86;85.49
14089;BME280;7120;52.890;6.040;2023-02-08T01:45:44;103907.19;;;-1.72;84.98
14089;BME280;7120;52.890;6.040;2023-02-08T01:48:18;103912.69;;;-1.73;84.51
14089;BME280;7120;52.890;6.040;2023-02-08T01:50:51;103891.84;;;-1.89;84.59
14089;BME280;7120;52.890;6.040;2023-02-08T01:53:18;103898.59;;;-1.85;84.28
14089;BME280;7120;52.890;6.040;2023-02-08T01:55:47;103912.59;;;-1.81;84.15
14089;BME280;7120;52.890;6.040;2023-02-08T01:58:15;103917.66;;;-1.88;85.88
14089;BME280;7120;52.890;6.040;2023-02-08T02:00:41;103897.75;;;-1.85;85.43
14089;BME280;7120;52.890;6.040;2023-02-08T02:03:07;103912.13;;;-1.77;84.38
14089;BME280;7120;52.890;6.040;2023-02-08T02:05:40;103914.53;;;-1.83;85.65
14089;BME280;7120;52.890;6.040;2023-02-08T02:08:06;103915.84;;;-1.87;85.01
14089;BME280;7120;52.890;6.040;2023-02-08T02:10:34;103904.00;;;-1.95;84.69
14089;BME280;7120;52.890;6.040;2023-02-08T02:13:11;103910.88;;;-1.92;85.68
14089;BME280;7120;52.890;6.040;2023-02-08T02:15:36;103903.84;;;-1.93;84.96
14089;BME280;7120;52.890;6.040;2023-02-08T02:18:05;103892.28;;;-2.03;85.36
14089;BME280;7120;52.890;6.040;2023-02-08T02:34:09;103915.28;;;-2.01;86.31
14089;BME280;7120;52.890;6.040;2023-02-08T02:44:53;103896.63;;;-1.83;85.12
14089;BME280;7120;52.890;6.040;2023-02-08T02:50:05;103878.81;;;-1.84;84.93
14089;BME280;7120;52.890;6.040;2023-02-08T02:53:02;103875.88;;;-1.90;85.17
14089;BME280;7120;52.890;6.040;2023-02-08T02:55:28;103887.59;;;-1.91;85.29
14089;BME280;7120;52.890;6.040;2023-02-08T02:57:57;103886.47;;;-1.89;84.64
14089;BME280;7120;52.890;6.040;2023-02-08T03:00:25;103884.34;;;-1.85;84.74
14089;BME280;7120;52.890;6.040;2023-02-08T03:02:52;103899.44;;;-1.75;84.28
14089;BME280;7120;52.890;6.040;2023-02-08T03:05:19;103898.59;;;-1.85;83.66
14089;BME280;7120;52.890;6.040;2023-02-08T03:08:03;103887.03;;;-2.05;84.28
14089;BME280;7120;52.890;6.040;2023-02-08T03:10:52;103891.88;;;-2.08;85.49
14089;BME280;7120;52.890;6.040;2023-02-08T03:13:31;103891.84;;;-1.99;85.50
14089;BME280;7120;52.890;6.040;2023-02-08T03:16:18;103897.94;;;-1.97;84.49
14089;BME280;7120;52.890;6.040;2023-02-08T03:19:08;103889.03;;;-1.97;84.46
14089;BME280;7120;52.890;6.040;2023-02-08T03:21:52;103884.34;;;-1.85;83.87
14089;BME280;7120;52.890;6.040;2023-02-08T03:24:38;103884.06;;;-1.92;84.36
14089;BME280;7120;52.890;6.040;2023-02-08T03:27:08;103886.19;;;-1.86;85.34
14089;BME280;7120;52.890;6.040;2023-02-08T03:29:46;103877.72;;;-1.81;84.88
14089;BME280;7120;52.890;6.040;2023-02-08T03:32:25;103882.53;;;-1.95;84.82
14089;BME280;7120;52.890;6.040;2023-02-08T03:37:36;103874.78;;;-2.07;84.91
14089;BME280;7120;52.890;6.040;2023-02-08T03:40:10;103887.19;;;-1.97;85.47
14089;BME280;7120;52.890;6.040;2023-02-08T03:42:38;103880.69;;;-1.94;84.50
14089;BME280;7120;52.890;6.040;2023-02-08T03:45:09;103889.88;;;-2.06;85.16
14089;BME280;7120;52.890;6.040;2023-02-08T03:47:40;103894.41;;;-2.16;85.40
14089;BME280;7120;52.890;6.040;2023-02-08T03:50:10;103899.31;;;-2.12;85.73
14089;BME280;7120;52.890;6.040;2023-02-08T03:52:36;103887.63;;;-2.21;85.46
14089;BME280;7120;52.890;6.040;2023-02-08T03:55:07;103876.47;;;-2.26;86.36
14089;BME280;7120;52.890;6.040;2023-02-08T03:58:21;103876.50;;;-2.16;86.34
14089;BME280;7120;52.890;6.040;2023-02-08T04:00:22;103879.16;;;-2.06;85.61
14089;BME280;7120;52.890;6.040;2023-02-08T04:02:54;103873.78;;;-1.97;84.96
14089;BME280;7120;52.890;6.040;2023-02-08T04:05:21;103896.38;;;-1.89;85.38
14089;BME280;7120;52.890;6.040;2023-02-08T04:07:48;103890.84;;;-1.98;84.99
14089;BME280;7120;52.890;6.040;2023-02-08T04:10:13;103874.63;;;-1.96;84.13
14089;BME280;7120;52.890;6.040;2023-02-08T04:12:39;103883.06;;;-1.91;84.48
14089;BME280;7120;52.890;6.040;2023-02-08T04:15:04;103872.66;;;-1.94;84.90
14089;BME280;7120;52.890;6.040;2023-02-08T04:17:30;103872.22;;;-1.89;84.62
14089;BME280;7120;52.890;6.040;2023-02-08T04:19:56;103867.25;;;-1.84;84.57
14089;BME280;7120;52.890;6.040;2023-02-08T04:22:22;103874.47;;;-1.85;84.63
14089;BME280;7120;52.890;6.040;2023-02-08T04:24:47;103855.53;;;-1.83;84.11
14089;BME280;7120;52.890;6.040;2023-02-08T04:27:12;103863.84;;;-1.77;84.35
14089;BME280;7120;52.890;6.040;2023-02-08T04:29:38;103858.78;;;-1.80;84.54
14089;BME280;7120;52.890;6.040;2023-02-08T04:32:03;103854.56;;;-1.82;84.71
14089;BME280;7120;52.890;6.040;2023-02-08T04:34:29;103843.31;;;-1.96;85.24
14089;BME280;7120;52.890;6.040;2023-02-08T04:36:54;103866.88;;;-1.89;84.87
14089;BME280;7120;52.890;6.040;2023-02-08T04:39:19;103850.16;;;-1.83;84.52
14089;BME280;7120;52.890;6.040;2023-02-08T04:41:45;103856.41;;;-1.83;85.34
14089;BME280;7120;52.890;6.040;2023-02-08T04:44:10;103860.50;;;-1.88;85.02
14089;BME280;7120;52.890;6.040;2023-02-08T04:46:36;103868.13;;;-1.94;84.99
14089;BME280;7120;52.890;6.040;2023-02-08T04:49:01;103855.03;;;-2.06;85.32
14089;BME280;7120;52.890;6.040;2023-02-08T04:51:26;103845.31;;;-2.17;85.05
14089;BME280;7120;52.890;6.040;2023-02-08T04:53:52;103845.84;;;-2.13;85.10
14089;BME280;7120;52.890;6.040;2023-02-08T04:56:17;103854.75;;;-2.03;84.79
14089;BME280;7120;52.890;6.040;2023-02-08T04:58:42;103854.34;;;-2.18;85.67
14089;BME280;7120;52.890;6.040;2023-02-08T05:01:08;103844.88;;;-2.03;84.94
14089;BME280;7120;52.890;6.040;2023-02-08T05:03:37;103849.94;;;-2.00;84.47
14089;BME280;7120;52.890;6.040;2023-02-08T05:06:02;103845.03;;;-2.04;84.47
14089;BME280;7120;52.890;6.040;2023-02-08T05:08:27;103854.88;;;-2.05;85.17
14089;BME280;7120;52.890;6.040;2023-02-08T05:10:53;103861.78;;;-1.83;86.07
14089;BME280;7120;52.890;6.040;2023-02-08T05:13:18;103862.72;;;-1.84;85.87
14089;BME280;7120;52.890;6.040;2023-02-08T05:15:44;103864.59;;;-1.94;85.12
14089;BME280;7120;52.890;6.040;2023-02-08T05:18:10;103850.53;;;-2.15;84.74
14089;BME280;7120;52.890;6.040;2023-02-08T05:20:35;103864.03;;;-1.98;84.22
14089;BME280;7120;52.890;6.040;2023-02-08T05:23:00;103861.78;;;-1.92;84.52
14089;BME280;7120;52.890;6.040;2023-02-08T05:25:26;103855.56;;;-1.93;84.65
14089;BME280;7120;52.890;6.040;2023-02-08T05:27:51;103858.94;;;-1.91;84.10
14089;BME280;7120;52.890;6.040;2023-02-08T05:30:16;103858.81;;;-1.99;83.95
14089;BME280;7120;52.890;6.040;2023-02-08T05:32:42;103858.25;;;-1.93;84.36
14089;BME280;7120;52.890;6.040;2023-02-08T05:35:07;103872.09;;;-2.07;83.61
14089;BME280;7120;52.890;6.040;2023-02-08T05:37:33;103852.78;;;-2.21;84.46
14089;BME280;7120;52.890;6.040;2023-02-08T05:39:58;103861.28;;;-2.25;85.25
14089;BME280;7120;52.890;6.040;2023-02-08T05:42:24;103851.00;;;-2.39;84.74
14089;BME280;7120;52.890;6.040;2023-02-08T05:44:49;103820.09;;;-2.53;85.45
14089;BME280;7120;52.890;6.040;2023-02-08T05:47:14;103853.81;;;-2.31;85.31
14089;BME280;7120;52.890;6.040;2023-02-08T05:49:40;103866.75;;;-2.17;85.39
14089;BME280;7120;52.890;6.040;2023-02-08T05:52:05;103847.16;;;-2.17;84.04
14089;BME280;7120;52.890;6.040;2023-02-08T05:54:31;103859.13;;;-2.12;84.52
14089;BME280;7120;52.890;6.040;2023-02-08T05:56:56;103857.28;;;-2.02;84.53
14089;BME280;7120;52.890;6.040;2023-02-08T05:59:21;103864.47;;;-2.02;83.93
14089;BME280;7120;52.890;6.040;2023-02-08T06:01:46;103863.53;;;-2.11;83.69
14089;BME280;7120;52.890;6.040;2023-02-08T06:04:12;103854.78;;;-2.23;84.41
14089;BME280;7120;52.890;6.040;2023-02-08T06:06:37;103841.53;;;-2.43;85.20
14089;BME280;7120;52.890;6.040;2023-02-08T06:09:03;103855.63;;;-2.32;85.09
14089;BME280;7120;52.890;6.040;2023-02-08T06:11:29;103859.16;;;-2.31;85.09
14089;BME280;7120;52.890;6.040;2023-02-08T06:13:54;103859.84;;;-2.29;85.21
14089;BME280;7120;52.890;6.040;2023-02-08T06:16:19;103854.22;;;-2.36;85.03
14089;BME280;7120;52.890;6.040;2023-02-08T06:18:45;103844.63;;;-2.48;85.26
14089;BME280;7120;52.890;6.040;2023-02-08T06:21:10;103841.81;;;-2.46;84.72
14089;BME280;7120;52.890;6.040;2023-02-08T06:23:36;103849.56;;;-2.43;84.17
14089;BME280;7120;52.890;6.040;2023-02-08T06:26:02;103850.25;;;-2.41;84.74
14089;BME280;7120;52.890;6.040;2023-02-08T06:28:27;103849.69;;;-2.35;84.28
14089;BME280;7120;52.890;6.040;2023-02-08T06:30:52;103847.44;;;-2.30;84.06
14089;BME280;7120;52.890;6.040;2023-02-08T06:33:18;103837.84;;;-2.33;84.15
14089;BME280;7120;52.890;6.040;2023-02-08T06:35:50;103843.19;;;-2.33;83.67
14089;BME280;7120;52.890;6.040;2023-02-08T06:38:15;103837.13;;;-2.35;84.35
14089;BME280;7120;52.890;6.040;2023-02-08T06:40:41;103841.78;;;-2.27;84.64
14089;BME280;7120;52.890;6.040;2023-02-08T06:43:07;103827.41;;;-2.36;84.49
14089;BME280;7120;52.890;6.040;2023-02-08T06:45:32;103848.72;;;-2.34;85.49
14089;BME280;7120;52.890;6.040;2023-02-08T06:47:57;103857.31;;;-2.40;85.43
14089;BME280;7120;52.890;6.040;2023-02-08T06:50:23;103851.84;;;-2.39;85.32
14089;BME280;7120;52.890;6.040;2023-02-08T06:52:48;103845.06;;;-2.43;85.70
14089;BME280;7120;52.890;6.040;2023-02-08T06:55:14;103850.97;;;-2.30;85.18
14089;BME280;7120;52.890;6.040;2023-02-08T06:57:39;103844.47;;;-2.27;85.28
14089;BME280;7120;52.890;6.040;2023-02-08T07:00:05;103845.19;;;-2.25;84.43
14089;BME280;7120;52.890;6.040;2023-02-08T07:02:31;103840.25;;;-2.30;84.41
14089;BME280;7120;52.890;6.040;2023-02-08T07:04:56;103843.91;;;-2.31;84.66
14089;BME280;7120;52.890;6.040;2023-02-08T07:07:22;103826.44;;;-2.44;84.69
14089;BME280;7120;52.890;6.040;2023-02-08T07:09:47;103846.31;;;-2.28;84.36
14089;BME280;7120;52.890;6.040;2023-02-08T07:12:12;103833.47;;;-2.24;84.81
14089;BME280;7120;52.890;6.040;2023-02-08T07:14:40;103849.28;;;-2.11;85.23
14089;BME280;7120;52.890;6.040;2023-02-08T07:17:06;103829.94;;;-2.15;84.66
14089;BME280;7120;52.890;6.040;2023-02-08T07:19:32;103851.63;;;-1.99;84.87
14089;BME280;7120;52.890;6.040;2023-02-08T07:21:58;103839.34;;;-2.01;84.72
14089;BME280;7120;52.890;6.040;2023-02-08T07:24:33;103840.31;;;-1.92;84.63
14089;BME280;7120;52.890;6.040;2023-02-08T07:26:59;103835.78;;;-1.92;84.27
14089;BME280;7120;52.890;6.040;2023-02-08T07:29:25;103828.03;;;-1.85;84.33
14089;BME280;7120;52.890;6.040;2023-02-08T07:31:50;103826.59;;;-1.80;84.25
14089;BME280;7120;52.890;6.040;2023-02-08T07:34:15;103828.28;;;-1.79;84.47
14089;BME280;7120;52.890;6.040;2023-02-08T07:36:46;103830.50;;;-1.64;83.28
14089;BME280;7120;52.890;6.040;2023-02-08T07:39:12;103816.66;;;-1.70;83.49
14089;BME280;7120;52.890;6.040;2023-02-08T07:41:37;103819.50;;;-1.71;83.68
14089;BME280;7120;52.890;6.040;2023-02-08T07:44:02;103809.59;;;-1.71;83.57
14089;BME280;7120;52.890;6.040;2023-02-08T07:46:28;103826.38;;;-1.59;84.36
14089;BME280;7120;52.890;6.040;2023-02-08T07:48:53;103824.59;;;-1.68;84.64
14089;BME280;7120;52.890;6.040;2023-02-08T07:51:19;103823.38;;;-1.46;84.06
14089;BME280;7120;52.890;6.040;2023-02-08T07:53:44;103830.66;;;-1.39;84.04
14089;BME280;7120;52.890;6.040;2023-02-08T07:56:09;103812.88;;;-1.40;83.93
14089;BME280;7120;52.890;6.040;2023-02-08T07:58:36;103818.34;;;-1.31;83.75
14089;BME280;7120;52.890;6.040;2023-02-08T08:01:01;103822.97;;;-1.24;83.30
14089;BME280;7120;52.890;6.040;2023-02-08T08:03:27;103812.66;;;-1.28;83.90
14089;BME280;7120;52.890;6.040;2023-02-08T08:05:53;103810.94;;;-1.20;83.67
14089;BME280;7120;52.890;6.040;2023-02-08T08:08:18;103818.75;;;-1.08;83.94
14089;BME280;7120;52.890;6.040;2023-02-08T08:10:44;103810.09;;;-1.02;83.68
14089;BME280;7120;52.890;6.040;2023-02-08T08:13:11;103809.50;;;-0.96;83.93
14089;BME280;7120;52.890;6.040;2023-02-08T08:15:37;103801.69;;;-0.90;84.06
14089;BME280;7120;52.890;6.040;2023-02-08T08:18:03;103804.00;;;-0.77;83.51
14089;BME280;7120;52.890;6.040;2023-02-08T08:20:28;103793.69;;;-0.81;83.30
14089;BME280;7120;52.890;6.040;2023-02-08T08:22:54;103793.53;;;-0.62;83.17
14089;BME280;7120;52.890;6.040;2023-02-08T08:25:19;103794.31;;;-0.70;84.15
14089;BME280;7120;52.890;6.040;2023-02-08T08:27:44;103794.44;;;-0.53;84.21
14089;BME280;7120;52.890;6.040;2023-02-08T08:30:12;103802.34;;;-0.52;84.41
14089;BME280;7120;52.890;6.040;2023-02-08T08:32:38;103786.44;;;-0.45;84.22
14089;BME280;7120;52.890;6.040;2023-02-08T08:35:05;103791.72;;;-0.36;84.33
14089;BME280;7120;52.890;6.040;2023-02-08T08:37:31;103793.88;;;-0.39;84.02
14089;BME280;7120;52.890;6.040;2023-02-08T08:39:57;103789.78;;;-0.25;84.88
14089;BME280;7120;52.890;6.040;2023-02-08T08:42:23;103796.28;;;-0.10;85.03
14089;BME280;7120;52.890;6.040;2023-02-08T08:44:48;103774.50;;;0.01;84.75
14089;BME280;7120;52.890;6.040;2023-02-08T08:47:14;103791.59;;;0.26;84.19
14089;BME280;7120;52.890;6.040;2023-02-08T08:49:39;103798.97;;;0.50;83.48
14089;BME280;7120;52.890;6.040;2023-02-08T08:52:08;103790.47;;;0.71;82.80
14089;BME280;7120;52.890;6.040;2023-02-08T08:54:34;103799.63;;;1.02;82.17
14089;BME280;7120;52.890;6.040;2023-02-08T08:56:59;103806.06;;;1.18;82.08
14089;BME280;7120;52.890;6.040;2023-02-08T08:59:24;103795.13;;;1.44;81.34
14089;BME280;7120;52.890;6.040;2023-02-08T09:01:50;103805.56;;;1.87;80.60
14089;BME280;7120;52.890;6.040;2023-02-08T09:04:16;103803.59;;;2.29;79.86
14089;BME280;7120;52.890;6.040;2023-02-08T09:06:41;103798.34;;;2.35;77.29
14089;BME280;7120;52.890;6.040;2023-02-08T09:09:07;103811.50;;;2.78;77.21
14089;BME280;7120;52.890;6.040;2023-02-08T09:11:32;103800.41;;;3.03;77.19
14089;BME280;7120;52.890;6.040;2023-02-08T09:14:00;103817.75;;;3.09;76.09
14089;BME280;7120;52.890;6.040;2023-02-08T09:16:26;103806.22;;;3.38;74.90
14089;BME280;7120;52.890;6.040;2023-02-08T09:18:51;103816.91;;;3.54;75.21
14089;BME280;7120;52.890;6.040;2023-02-08T09:21:19;103802.94;;;4.03;74.59
14089;BME280;7120;52.890;6.040;2023-02-08T09:23:45;103820.47;;;4.07;73.07
14089;BME280;7120;52.890;6.040;2023-02-08T09:26:13;103806.09;;;4.36;73.08
14089;BME280;7120;52.890;6.040;2023-02-08T09:28:39;103809.47;;;4.53;71.33
14089;BME280;7120;52.890;6.040;2023-02-08T09:31:09;103809.91;;;4.86;69.76
14089;BME280;7120;52.890;6.040;2023-02-08T09:33:36;103810.78;;;5.08;68.79
14089;BME280;7120;52.890;6.040;2023-02-08T09:36:01;103814.56;;;5.35;68.57
14089;BME280;7120;52.890;6.040;2023-02-08T09:38:27;103812.25;;;5.32;64.72
14089;BME280;7120;52.890;6.040;2023-02-08T09:41:04;103816.69;;;5.61;65.37
14089;BME280;7120;52.890;6.040;2023-02-08T09:46:27;103817.09;;;6.36;62.66
14089;BME280;7120;52.890;6.040;2023-02-08T09:48:59;103813.66;;;6.27;63.19
14089;BME280;7120;52.890;6.040;2023-02-08T09:51:45;103822.72;;;6.41;61.82
14089;BME280;7120;52.890;6.040;2023-02-08T09:54:23;103813.88;;;6.25;60.30
14089;BME280;7120;52.890;6.040;2023-02-08T09:56:51;103820.84;;;6.82;60.76
14089;BME280;7120;52.890;6.040;2023-02-08T09:59:23;103821.19;;;7.21;61.62
14089;BME280;7120;52.890;6.040;2023-02-08T10:01:54;103819.78;;;6.83;58.70
14089;BME280;7120;52.890;6.040;2023-02-08T10:06:56;103817.13;;;6.97;58.44
14089;BME280;7120;52.890;6.040;2023-02-08T10:09:24;103822.44;;;6.64;55.37
14089;BME280;7120;52.890;6.040;2023-02-08T10:15:04;103817.84;;;6.23;55.43
14089;BME280;7120;52.890;6.040;2023-02-08T10:34:44;103812.72;;;6.96;52.54
14089;BME280;7120;52.890;6.040;2023-02-08T10:37:17;103804.03;;;7.33;53.34
14089;BME280;7120;52.890;6.040;2023-02-08T10:39:43;103809.09;;;7.83;54.01
14089;BME280;7120;52.890;6.040;2023-02-08T10:42:16;103792.09;;;7.34;51.89
14089;BME280;7120;52.890;6.040;2023-02-08T10:47:35;103779.72;;;7.38;50.10
14089;BME280;7120;52.890;6.040;2023-02-08T10:50:23;103796.91;;;7.85;50.66
14089;BME280;7120;52.890;6.040;2023-02-08T10:52:54;103801.31;;;7.60;48.16
14089;BME280;7120;52.890;6.040;2023-02-08T10:55:20;103790.22;;;7.81;50.75
14089;BME280;7120;52.890;6.040;2023-02-08T10:57:47;103801.72;;;7.37;47.90
14089;BME280;7120;52.890;6.040;2023-02-08T11:02:42;103796.50;;;7.75;47.97
14089;BME280;7120;52.890;6.040;2023-02-08T11:05:14;103795.47;;;7.83;47.71
14089;BME280;7120;52.890;6.040;2023-02-08T11:07:41;103784.97;;;7.73;47.38
14089;BME280;7120;52.890;6.040;2023-02-08T11:10:22;103791.06;;;7.42;49.82
14089;BME280;7120;52.890;6.040;2023-02-08T11:13:00;103776.19;;;7.84;48.54
14089;BME280;7120;52.890;6.040;2023-02-08T11:15:42;103774.44;;;8.03;48.95
14089;BME280;7120;52.890;6.040;2023-02-08T11:18:21;103762.31;;;7.92;47.82
14089;BME280;7120;52.890;6.040;2023-02-08T11:20:51;103759.00;;;7.90;47.19
14089;BME280;7120;52.890;6.040;2023-02-08T11:23:20;103764.66;;;7.82;49.08
14089;BME280;7120;52.890;6.040;2023-02-08T11:25:47;103747.25;;;7.83;47.58
14089;BME280;7120;52.890;6.040;2023-02-08T11:28:27;103743.25;;;8.64;47.61
14089;BME280;7120;52.890;6.040;2023-02-08T11:30:55;103740.41;;;8.84;48.97
14089;BME280;7120;52.890;6.040;2023-02-08T11:33:22;103729.38;;;8.65;46.72
14089;BME280;7120;52.890;6.040;2023-02-08T11:36:05;103729.91;;;8.42;47.16
14089;BME280;7120;52.890;6.040;2023-02-08T11:38:35;103726.19;;;8.75;46.78
14089;BME280;7120;52.890;6.040;2023-02-08T11:41:13;103720.97;;;9.05;45.84
14089;BME280;7120;52.890;6.040;2023-02-08T11:43:40;103720.91;;;9.12;44.50
14089;BME280;7120;52.890;6.040;2023-02-08T11:46:06;103719.44;;;9.09;45.87
14089;BME280;7120;52.890;6.040;2023-02-08T11:48:44;103720.47;;;9.15;43.80
14089;BME280;7120;52.890;6.040;2023-02-08T11:51:32;103722.47;;;9.51;45.39
14089;BME280;7120;52.890;6.040;2023-02-08T11:53:59;103724.53;;;9.05;43.09
14089;BME280;7120;52.890;6.040;2023-02-08T11:56:30;103715.78;;;8.97;44.80
14089;BME280;7120;52.890;6.040;2023-02-08T11:59:02;103709.00;;;9.31;43.07
14089;BME280;7120;52.890;6.040;2023-02-08T12:01:31;103708.72;;;9.39;41.98
14089;BME280;7120;52.890;6.040;2023-02-08T12:03:59;103699.69;;;9.39;41.98
14089;BME280;7120;52.890;6.040;2023-02-08T12:09:34;103695.75;;;10.33;42.19
14089;BME280;7120;52.890;6.040;2023-02-08T12:12:24;103699.06;;;9.98;42.01
14089;BME280;7120;52.890;6.040;2023-02-08T12:17:45;103687.06;;;10.17;40.06
14089;BME280;7120;52.890;6.040;2023-02-08T12:20:35;103692.22;;;10.07;41.12
14089;BME280;7120;52.890;6.040;2023-02-08T12:28:57;103675.84;;;10.26;38.35
14089;BME280;7120;52.890;6.040;2023-02-08T12:34:29;103677.28;;;10.28;39.79
14089;BME280;7120;52.890;6.040;2023-02-08T12:40:00;103662.91;;;10.63;39.41
14089;BME280;7120;52.890;6.040;2023-02-08T12:43:29;103666.31;;;10.88;37.84
14089;BME280;7120;52.890;6.040;2023-02-08T12:49:27;103673.66;;;11.30;37.40
14089;BME280;7120;52.890;6.040;2023-02-08T12:52:17;103667.69;;;11.09;37.58
14089;BME280;7120;52.890;6.040;2023-02-08T12:55:22;103662.31;;;10.31;38.79
14089;BME280;7120;52.890;6.040;2023-02-08T12:57:52;103651.84;;;10.58;35.78
14089;BME280;7120;52.890;6.040;2023-02-08T13:00:33;103650.22;;;10.38;35.26
14089;BME280;7120;52.890;6.040;2023-02-08T13:03:28;103656.47;;;9.54;37.60
14089;BME280;7120;52.890;6.040;2023-02-08T13:05:56;103637.78;;;10.06;35.68
14089;BME280;7120;52.890;6.040;2023-02-08T13:11:40;103629.63;;;10.66;37.50
14089;BME280;7120;52.890;6.040;2023-02-08T13:14:30;103619.84;;;10.28;35.88
14089;BME280;7120;52.890;6.040;2023-02-08T13:17:00;103614.03;;;9.70;37.79
14089;BME280;7120;52.890;6.040;2023-02-08T13:19:35;103623.50;;;10.22;38.17
14089;BME280;7120;52.890;6.040;2023-02-08T13:22:07;103619.03;;;9.54;38.61
14089;BME280;7120;52.890;6.040;2023-02-08T13:24:35;103609.28;;;10.13;41.27
14089;BME280;7120;52.890;6.040;2023-02-08T13:27:02;103617.25;;;9.67;39.41
14089;BME280;7120;52.890;6.040;2023-02-08T13:29:30;103611.28;;;10.06;38.59
14089;BME280;7120;52.890;6.040;2023-02-08T13:32:13;103607.69;;;10.06;41.01
14089;BME280;7120;52.890;6.040;2023-02-08T13:34:49;103606.81;;;9.57;39.03
14089;BME280;7120;52.890;6.040;2023-02-08T13:37:31;103591.50;;;9.38;39.11
14089;BME280;7120;52.890;6.040;2023-02-08T13:40:25;103590.38;;;9.45;38.62
14089;BME280;7120;52.890;6.040;2023-02-08T13:45:33;103583.56;;;9.11;37.09
14089;BME280;7120;52.890;6.040;2023-02-08T13:48:07;103581.38;;;9.20;39.90
14089;BME280;7120;52.890;6.040;2023-02-08T13:50:43;103576.03;;;9.06;38.41
14089;BME280;7120;52.890;6.040;2023-02-08T13:53:09;103563.34;;;8.94;39.62
14089;BME280;7120;52.890;6.040;2023-02-08T14:03:25;103543.94;;;8.27;38.80
14089;BME280;7120;52.890;6.040;2023-02-08T14:05:55;103538.50;;;8.20;40.81
14089;BME280;7120;52.890;6.040;2023-02-08T14:09:11;103535.38;;;7.85;40.77
14089;BME280;7120;52.890;6.040;2023-02-08T14:19:33;103505.78;;;7.51;39.70
14089;BME280;7120;52.890;6.040;2023-02-08T14:24:35;103518.72;;;7.62;39.89
14089;BME280;7120;52.890;6.040;2023-02-08T14:27:08;103483.44;;;7.35;40.08
14089;BME280;7120;52.890;6.040;2023-02-08T14:29:35;103516.06;;;7.42;43.34
14089;BME280;7120;52.890;6.040;2023-02-08T14:32:02;103514.19;;;7.42;43.58
14089;BME280;7120;52.890;6.040;2023-02-08T14:37:46;103509.94;;;7.53;41.90
14089;BME280;7120;52.890;6.040;2023-02-08T14:39:46;103505.31;;;7.54;41.88
14089;BME280;7120;52.890;6.040;2023-02-08T14:45:27;103496.84;;;7.30;40.99
14089;BME280;7120;52.890;6.040;2023-02-08T14:47:56;103488.63;;;7.43;42.02
14089;BME280;7120;52.890;6.040;2023-02-08T14:50:26;103484.75;;;7.13;39.87
14089;BME280;7120;52.890;6.040;2023-02-08T14:55:24;103475.09;;;7.17;40.25
14089;BME280;7120;52.890;6.040;2023-02-08T14:57:53;103477.41;;;7.20;40.68
14089;BME280;7120;52.890;6.040;2023-02-08T15:00:22;103476.19;;;7.09;42.03
14089;BME280;7120;52.890;6.040;2023-02-08T15:02:49;103474.75;;;7.00;42.28
14089;BME280;7120;52.890;6.040;2023-02-08T15:05:26;103460.50;;;7.05;45.35
14089;BME280;7120;52.890;6.040;2023-02-08T15:07:54;103468.88;;;6.90;44.61